sensor_id;sensor_type;location;lat;lon;timestamp;P1;durP1;ratioP1;P2;durP2;ratioP2
2480;SDS011;57396;48.742;9.128;2022-09-09T00:02:16;4.73;;;1.53;;
2480;SDS011;57396;48.742;9.128;2022-09-09T00:04:46;5.50;;;1.67;;
2480;SDS011;57396;48.742;9.128;2022-09-09T00:15:19;8.00;;;2.20;;
2480;SDS011;57396;48.742;9.128;2022-09-09T00:17:47;2.20;;;1.40;;
2480;SDS011;57396;48.742;9.128;2022-09-09T00:23:08;11.63;;;1.50;;
2480;SDS011;57396;48.742;9.128;2022-09-09T00:25:43;5.40;;;1.73;;
2480;SDS011;57396;48.742;9.128;2022-09-09T00:28:22;4.87;;;1.60;;
2480;SDS011;57396;48.742;9.128;2022-09-09T00:30:48;2.90;;;1.53;;
2480;SDS011;57396;48.742;9.128;2022-09-09T00:33:15;4.70;;;1.73;;
2480;SDS011;57396;48.742;9.128;2022-09-09T00:36:01;8.30;;;1.60;;
2480;SDS011;57396;48.742;9.128;2022-09-09T00:43:30;6.23;;;2.13;;
2480;SDS011;57396;48.742;9.128;2022-09-09T00:48:23;1.30;;;1.20;;
2480;SDS011;57396;48.742;9.128;2022-09-09T01:02:52;4.80;;;1.60;;
2480;SDS011;57396;48.742;9.128;2022-09-09T01:05:36;3.37;;;1.33;;
2480;SDS011;57396;48.742;9.128;2022-09-09T01:11:20;3.63;;;1.40;;
2480;SDS011;57396;48.742;9.128;2022-09-09T01:13:46;2.90;;;1.40;;
2480;SDS011;57396;48.742;9.128;2022-09-09T01:16:18;2.70;;;1.40;;
2480;SDS011;57396;48.742;9.128;2022-09-09T01:18:44;6.17;;;1.90;;
2480;SDS011;57396;48.742;9.128;2022-09-09T01:21:24;2.53;;;1.40;;
2480;SDS011;57396;48.742;9.128;2022-09-09T01:26:52;2.33;;;1.33;;
2480;SDS011;57396;48.742;9.128;2022-09-09T01:29:21;4.50;;;1.70;;
2480;SDS011;57396;48.742;9.128;2022-09-09T01:32:00;1.60;;;1.17;;
2480;SDS011;57396;48.742;9.128;2022-09-09T01:34:29;7.07;;;1.80;;
2480;SDS011;57396;48.742;9.128;2022-09-09T01:37:05;2.70;;;1.27;;
2480;SDS011;57396;48.742;9.128;2022-09-09T01:39:33;2.70;;;1.30;;
2480;SDS011;57396;48.742;9.128;2022-09-09T01:41:59;3.17;;;1.67;;
2480;SDS011;57396;48.742;9.128;2022-09-09T01:44:26;2.13;;;1.40;;
2480;SDS011;57396;48.742;9.128;2022-09-09T01:46:52;3.17;;;1.23;;
2480;SDS011;57396;48.742;9.128;2022-09-09T01:49:17;5.77;;;1.43;;
2480;SDS011;57396;48.742;9.128;2022-09-09T01:51:43;4.30;;;1.20;;
2480;SDS011;57396;48.742;9.128;2022-09-09T01:54:11;2.30;;;1.40;;
2480;SDS011;57396;48.742;9.128;2022-09-09T01:56:40;1.70;;;1.10;;
2480;SDS011;57396;48.742;9.128;2022-09-09T01:59:38;2.60;;;1.30;;
2480;SDS011;57396;48.742;9.128;2022-09-09T02:02:11;1.40;;;1.07;;
2480;SDS011;57396;48.742;9.128;2022-09-09T02:04:49;4.30;;;1.93;;
2480;SDS011;57396;48.742;9.128;2022-09-09T02:10:05;3.10;;;1.10;;
2480;SDS011;57396;48.742;9.128;2022-09-09T02:12:38;2.00;;;1.27;;
2480;SDS011;57396;48.742;9.128;2022-09-09T02:15:07;3.77;;;1.20;;
2480;SDS011;57396;48.742;9.128;2022-09-09T02:17:55;2.90;;;1.50;;
2480;SDS011;57396;48.742;9.128;2022-09-09T02:20:23;2.90;;;1.30;;
2480;SDS011;57396;48.742;9.128;2022-09-09T02:22:50;3.80;;;1.30;;
2480;SDS011;57396;48.742;9.128;2022-09-09T02:25:17;2.17;;;1.23;;
2480;SDS011;57396;48.742;9.128;2022-09-09T02:27:47;3.37;;;1.50;;
2480;SDS011;57396;48.742;9.128;2022-09-09T02:30:15;5.50;;;1.70;;
2480;SDS011;57396;48.742;9.128;2022-09-09T02:32:41;2.00;;;1.30;;
2480;SDS011;57396;48.742;9.128;2022-09-09T02:35:12;2.87;;;1.40;;
2480;SDS011;57396;48.742;9.128;2022-09-09T02:37:40;3.13;;;1.60;;
2480;SDS011;57396;48.742;9.128;2022-09-09T02:40:07;5.23;;;1.40;;
2480;SDS011;57396;48.742;9.128;2022-09-09T02:42:38;2.23;;;1.27;;
2480;SDS011;57396;48.742;9.128;2022-09-09T02:45:05;8.93;;;1.40;;
2480;SDS011;57396;48.742;9.128;2022-09-09T02:47:35;1.43;;;1.30;;
2480;SDS011;57396;48.742;9.128;2022-09-09T02:50:19;5.03;;;1.10;;
2480;SDS011;57396;48.742;9.128;2022-09-09T02:53:00;2.60;;;1.20;;
2480;SDS011;57396;48.742;9.128;2022-09-09T02:55:42;2.30;;;1.30;;
2480;SDS011;57396;48.742;9.128;2022-09-09T02:58:13;4.10;;;1.70;;
2480;SDS011;57396;48.742;9.128;2022-09-09T03:00:45;2.07;;;1.10;;
2480;SDS011;57396;48.742;9.128;2022-09-09T03:03:11;6.73;;;1.13;;
2480;SDS011;57396;48.742;9.128;2022-09-09T03:05:37;3.00;;;1.40;;
2480;SDS011;57396;48.742;9.128;2022-09-09T03:08:04;7.03;;;1.40;;
2480;SDS011;57396;48.742;9.128;2022-09-09T03:10:31;5.47;;;1.47;;
2480;SDS011;57396;48.742;9.128;2022-09-09T03:12:57;2.23;;;1.33;;
2480;SDS011;57396;48.742;9.128;2022-09-09T03:15:22;5.53;;;1.50;;
2480;SDS011;57396;48.742;9.128;2022-09-09T03:17:48;4.20;;;1.00;;
2480;SDS011;57396;48.742;9.128;2022-09-09T03:20:13;4.77;;;1.30;;
2480;SDS011;57396;48.742;9.128;2022-09-09T03:22:39;4.23;;;1.10;;
2480;SDS011;57396;48.742;9.128;2022-09-09T03:25:05;2.97;;;1.10;;
2480;SDS011;57396;48.742;9.128;2022-09-09T03:27:31;2.30;;;1.00;;
2480;SDS011;57396;48.742;9.128;2022-09-09T03:29:56;2.10;;;1.20;;
2480;SDS011;57396;48.742;9.128;2022-09-09T03:32:22;3.37;;;1.10;;
2480;SDS011;57396;48.742;9.128;2022-09-09T03:34:49;4.50;;;1.63;;
2480;SDS011;57396;48.742;9.128;2022-09-09T03:37:15;2.10;;;0.97;;
2480;SDS011;57396;48.742;9.128;2022-09-09T03:39:41;2.07;;;0.90;;
2480;SDS011;57396;48.742;9.128;2022-09-09T03:42:06;2.17;;;0.83;;
2480;SDS011;57396;48.742;9.128;2022-09-09T03:44:32;2.63;;;1.10;;
2480;SDS011;57396;48.742;9.128;2022-09-09T03:46:57;2.80;;;1.20;;
2480;SDS011;57396;48.742;9.128;2022-09-09T03:49:25;5.20;;;1.03;;
2480;SDS011;57396;48.742;9.128;2022-09-09T03:52:01;1.83;;;1.07;;
2480;SDS011;57396;48.742;9.128;2022-09-09T03:54:26;3.23;;;0.90;;
2480;SDS011;57396;48.742;9.128;2022-09-09T03:56:52;4.33;;;1.03;;
2480;SDS011;57396;48.742;9.128;2022-09-09T03:59:17;1.30;;;1.00;;
2480;SDS011;57396;48.742;9.128;2022-09-09T04:01:43;2.40;;;1.10;;
2480;SDS011;57396;48.742;9.128;2022-09-09T04:04:10;1.60;;;0.80;;
2480;SDS011;57396;48.742;9.128;2022-09-09T04:06:37;3.00;;;1.00;;
2480;SDS011;57396;48.742;9.128;2022-09-09T04:09:02;4.27;;;1.20;;
2480;SDS011;57396;48.742;9.128;2022-09-09T04:11:28;3.20;;;1.00;;
2480;SDS011;57396;48.742;9.128;2022-09-09T04:13:53;3.00;;;1.10;;
2480;SDS011;57396;48.742;9.128;2022-09-09T04:16:19;3.13;;;0.90;;
2480;SDS011;57396;48.742;9.128;2022-09-09T04:18:45;3.73;;;1.17;;
2480;SDS011;57396;48.742;9.128;2022-09-09T04:21:10;3.80;;;0.93;;
2480;SDS011;57396;48.742;9.128;2022-09-09T04:23:37;3.03;;;1.40;;
2480;SDS011;57396;48.742;9.128;2022-09-09T04:26:03;1.97;;;0.83;;
2480;SDS011;57396;48.742;9.128;2022-09-09T04:28:30;1.50;;;0.90;;
2480;SDS011;57396;48.742;9.128;2022-09-09T04:31:03;7.03;;;1.00;;
2480;SDS011;57396;48.742;9.128;2022-09-09T04:33:29;2.57;;;1.17;;
2480;SDS011;57396;48.742;9.128;2022-09-09T04:35:56;1.80;;;1.00;;
2480;SDS011;57396;48.742;9.128;2022-09-09T04:38:22;2.80;;;1.17;;
2480;SDS011;57396;48.742;9.128;2022-09-09T04:40:48;4.70;;;1.20;;
2480;SDS011;57396;48.742;9.128;2022-09-09T04:43:14;1.80;;;1.20;;
2480;SDS011;57396;48.742;9.128;2022-09-09T04:45:40;3.07;;;1.50;;
2480;SDS011;57396;48.742;9.128;2022-09-09T04:48:07;2.83;;;1.20;;
2480;SDS011;57396;48.742;9.128;2022-09-09T04:50:33;4.77;;;1.30;;
2480;SDS011;57396;48.742;9.128;2022-09-09T04:53:02;5.50;;;1.17;;
2480;SDS011;57396;48.742;9.128;2022-09-09T04:55:28;2.57;;;1.10;;
2480;SDS011;57396;48.742;9.128;2022-09-09T04:57:54;5.47;;;1.13;;
2480;SDS011;57396;48.742;9.128;2022-09-09T05:00:19;6.13;;;1.50;;
2480;SDS011;57396;48.742;9.128;2022-09-09T05:02:45;2.50;;;1.50;;
2480;SDS011;57396;48.742;9.128;2022-09-09T05:05:11;2.80;;;1.20;;
2480;SDS011;57396;48.742;9.128;2022-09-09T05:07:37;4.13;;;1.37;;
2480;SDS011;57396;48.742;9.128;2022-09-09T05:10:02;3.07;;;1.73;;
2480;SDS011;57396;48.742;9.128;2022-09-09T05:12:29;6.20;;;1.47;;
2480;SDS011;57396;48.742;9.128;2022-09-09T05:14:55;8.23;;;1.60;;
2480;SDS011;57396;48.742;9.128;2022-09-09T05:17:20;1.80;;;1.10;;
2480;SDS011;57396;48.742;9.128;2022-09-09T05:19:46;3.53;;;1.40;;
2480;SDS011;57396;48.742;9.128;2022-09-09T05:22:11;2.50;;;1.30;;
2480;SDS011;57396;48.742;9.128;2022-09-09T05:24:37;11.37;;;1.57;;
2480;SDS011;57396;48.742;9.128;2022-09-09T05:27:03;3.90;;;1.70;;
2480;SDS011;57396;48.742;9.128;2022-09-09T05:29:31;2.93;;;1.50;;
2480;SDS011;57396;48.742;9.128;2022-09-09T05:31:58;1.57;;;1.30;;
2480;SDS011;57396;48.742;9.128;2022-09-09T05:34:24;4.40;;;1.40;;
2480;SDS011;57396;48.742;9.128;2022-09-09T05:36:49;2.13;;;1.40;;
2480;SDS011;57396;48.742;9.128;2022-09-09T05:39:16;1.87;;;1.27;;
2480;SDS011;57396;48.742;9.128;2022-09-09T05:41:41;3.43;;;1.27;;
2480;SDS011;57396;48.742;9.128;2022-09-09T05:44:07;3.87;;;1.40;;
2480;SDS011;57396;48.742;9.128;2022-09-09T05:46:33;4.23;;;1.40;;
2480;SDS011;57396;48.742;9.128;2022-09-09T05:48:58;4.23;;;1.10;;
2480;SDS011;57396;48.742;9.128;2022-09-09T05:51:25;4.77;;;1.20;;
2480;SDS011;57396;48.742;9.128;2022-09-09T05:53:51;1.80;;;1.00;;
2480;SDS011;57396;48.742;9.128;2022-09-09T05:56:21;4.00;;;1.33;;
2480;SDS011;57396;48.742;9.128;2022-09-09T05:58:49;2.70;;;1.20;;
2480;SDS011;57396;48.742;9.128;2022-09-09T06:01:33;5.90;;;1.50;;
2480;SDS011;57396;48.742;9.128;2022-09-09T06:04:00;4.73;;;1.40;;
2480;SDS011;57396;48.742;9.128;2022-09-09T06:06:26;5.10;;;1.10;;
2480;SDS011;57396;48.742;9.128;2022-09-09T06:08:53;4.90;;;1.27;;
2480;SDS011;57396;48.742;9.128;2022-09-09T06:11:22;3.97;;;1.40;;
2480;SDS011;57396;48.742;9.128;2022-09-09T06:13:49;2.33;;;1.80;;
2480;SDS011;57396;48.742;9.128;2022-09-09T06:16:19;8.27;;;6.00;;
2480;SDS011;57396;48.742;9.128;2022-09-09T06:18:45;4.80;;;3.40;;
2480;SDS011;57396;48.742;9.128;2022-09-09T06:21:20;6.17;;;3.90;;
2480;SDS011;57396;48.742;9.128;2022-09-09T06:23:47;8.20;;;5.23;;
2480;SDS011;57396;48.742;9.128;2022-09-09T06:26:23;5.83;;;3.57;;
2480;SDS011;57396;48.742;9.128;2022-09-09T06:28:52;8.47;;;4.83;;
2480;SDS011;57396;48.742;9.128;2022-09-09T06:31:22;6.23;;;2.10;;
2480;SDS011;57396;48.742;9.128;2022-09-09T06:33:50;3.43;;;1.60;;
2480;SDS011;57396;48.742;9.128;2022-09-09T06:36:23;5.00;;;2.17;;
2480;SDS011;57396;48.742;9.128;2022-09-09T06:38:56;7.23;;;2.27;;
2480;SDS011;57396;48.742;9.128;2022-09-09T06:41:22;11.40;;;8.90;;
2480;SDS011;57396;48.742;9.128;2022-09-09T06:43:50;10.20;;;8.37;;
2480;SDS011;57396;48.742;9.128;2022-09-09T06:46:16;4.90;;;1.80;;
2480;SDS011;57396;48.742;9.128;2022-09-09T06:48:42;5.33;;;2.40;;
2480;SDS011;57396;48.742;9.128;2022-09-09T06:51:19;7.13;;;3.50;;
2480;SDS011;57396;48.742;9.128;2022-09-09T06:53:47;4.90;;;2.60;;
2480;SDS011;57396;48.742;9.128;2022-09-09T06:59:00;4.70;;;3.77;;
2480;SDS011;57396;48.742;9.128;2022-09-09T07:01:31;4.80;;;2.70;;
2480;SDS011;57396;48.742;9.128;2022-09-09T07:03:58;2.00;;;1.00;;
2480;SDS011;57396;48.742;9.128;2022-09-09T07:06:29;2.67;;;1.60;;
2480;SDS011;57396;48.742;9.128;2022-09-09T07:08:56;4.93;;;1.67;;
2480;SDS011;57396;48.742;9.128;2022-09-09T07:11:25;2.63;;;1.60;;
2480;SDS011;57396;48.742;9.128;2022-09-09T07:13:53;4.10;;;1.60;;
2480;SDS011;57396;48.742;9.128;2022-09-09T07:16:19;5.53;;;1.77;;
2480;SDS011;57396;48.742;9.128;2022-09-09T07:18:45;4.40;;;1.40;;
2480;SDS011;57396;48.742;9.128;2022-09-09T07:21:11;5.50;;;1.43;;
2480;SDS011;57396;48.742;9.128;2022-09-09T07:23:38;2.03;;;1.20;;
2480;SDS011;57396;48.742;9.128;2022-09-09T07:26:10;4.80;;;3.10;;
2480;SDS011;57396;48.742;9.128;2022-09-09T07:28:38;7.67;;;5.23;;
2480;SDS011;57396;48.742;9.128;2022-09-09T07:31:04;5.53;;;3.63;;
2480;SDS011;57396;48.742;9.128;2022-09-09T07:33:31;12.67;;;7.60;;
2480;SDS011;57396;48.742;9.128;2022-09-09T07:36:02;6.47;;;5.07;;
2480;SDS011;57396;48.742;9.128;2022-09-09T07:38:33;5.83;;;4.40;;
2480;SDS011;57396;48.742;9.128;2022-09-09T07:41:07;3.50;;;1.80;;
2480;SDS011;57396;48.742;9.128;2022-09-09T07:43:37;4.00;;;1.33;;
2480;SDS011;57396;48.742;9.128;2022-09-09T07:46:03;7.27;;;2.17;;
2480;SDS011;57396;48.742;9.128;2022-09-09T07:48:29;2.80;;;1.20;;
2480;SDS011;57396;48.742;9.128;2022-09-09T07:51:05;4.20;;;1.20;;
2480;SDS011;57396;48.742;9.128;2022-09-09T07:53:35;3.73;;;1.30;;
2480;SDS011;57396;48.742;9.128;2022-09-09T07:56:08;4.23;;;1.30;;
2480;SDS011;57396;48.742;9.128;2022-09-09T07:58:36;2.07;;;0.93;;
2480;SDS011;57396;48.742;9.128;2022-09-09T08:01:09;8.90;;;1.80;;
2480;SDS011;57396;48.742;9.128;2022-09-09T08:03:36;5.57;;;1.40;;
2480;SDS011;57396;48.742;9.128;2022-09-09T08:06:06;2.40;;;1.30;;
2480;SDS011;57396;48.742;9.128;2022-09-09T08:08:33;2.17;;;1.20;;
2480;SDS011;57396;48.742;9.128;2022-09-09T08:11:13;4.83;;;1.30;;
2480;SDS011;57396;48.742;9.128;2022-09-09T08:13:43;5.20;;;1.40;;
2480;SDS011;57396;48.742;9.128;2022-09-09T08:16:13;4.53;;;1.07;;
2480;SDS011;57396;48.742;9.128;2022-09-09T08:18:41;7.63;;;1.47;;
2480;SDS011;57396;48.742;9.128;2022-09-09T08:21:11;2.40;;;1.23;;
2480;SDS011;57396;48.742;9.128;2022-09-09T08:23:41;3.67;;;1.00;;
2480;SDS011;57396;48.742;9.128;2022-09-09T08:26:11;2.53;;;1.10;;
2480;SDS011;57396;48.742;9.128;2022-09-09T08:28:38;4.37;;;1.33;;
2480;SDS011;57396;48.742;9.128;2022-09-09T08:31:09;4.33;;;1.20;;
2480;SDS011;57396;48.742;9.128;2022-09-09T08:33:36;2.30;;;1.10;;
2480;SDS011;57396;48.742;9.128;2022-09-09T08:36:03;6.80;;;1.20;;
2480;SDS011;57396;48.742;9.128;2022-09-09T08:38:30;2.13;;;0.93;;
2480;SDS011;57396;48.742;9.128;2022-09-09T08:40:57;4.90;;;1.70;;
2480;SDS011;57396;48.742;9.128;2022-09-09T08:43:29;6.70;;;1.03;;
2480;SDS011;57396;48.742;9.128;2022-09-09T08:48:36;5.60;;;1.60;;
2480;SDS011;57396;48.742;9.128;2022-09-09T08:51:08;6.07;;;1.10;;
2480;SDS011;57396;48.742;9.128;2022-09-09T08:53:42;4.03;;;1.10;;
2480;SDS011;57396;48.742;9.128;2022-09-09T08:56:11;5.33;;;1.20;;
2480;SDS011;57396;48.742;9.128;2022-09-09T08:58:47;3.03;;;1.30;;
2480;SDS011;57396;48.742;9.128;2022-09-09T09:01:21;3.70;;;1.07;;
2480;SDS011;57396;48.742;9.128;2022-09-09T09:09:23;1.73;;;0.90;;
2480;SDS011;57396;48.742;9.128;2022-09-09T09:11:59;4.83;;;1.10;;
2480;SDS011;57396;48.742;9.128;2022-09-09T09:14:30;4.40;;;1.20;;
2480;SDS011;57396;48.742;9.128;2022-09-09T09:19:31;3.73;;;1.00;;
2480;SDS011;57396;48.742;9.128;2022-09-09T09:22:04;4.93;;;1.40;;
2480;SDS011;57396;48.742;9.128;2022-09-09T09:27:18;4.83;;;0.93;;
2480;SDS011;57396;48.742;9.128;2022-09-09T09:29:50;8.60;;;1.30;;
2480;SDS011;57396;48.742;9.128;2022-09-09T09:32:18;11.43;;;1.50;;
2480;SDS011;57396;48.742;9.128;2022-09-09T09:34:49;3.97;;;1.00;;
2480;SDS011;57396;48.742;9.128;2022-09-09T09:37:17;3.10;;;1.03;;
2480;SDS011;57396;48.742;9.128;2022-09-09T09:39:48;4.10;;;1.20;;
2480;SDS011;57396;48.742;9.128;2022-09-09T09:42:16;2.50;;;1.03;;
2480;SDS011;57396;48.742;9.128;2022-09-09T09:44:43;3.40;;;1.23;;
2480;SDS011;57396;48.742;9.128;2022-09-09T09:47:19;3.23;;;0.90;;
2480;SDS011;57396;48.742;9.128;2022-09-09T09:49:55;5.47;;;1.10;;
2480;SDS011;57396;48.742;9.128;2022-09-09T09:52:25;4.87;;;1.00;;
2480;SDS011;57396;48.742;9.128;2022-09-09T09:54:53;1.63;;;1.00;;
2480;SDS011;57396;48.742;9.128;2022-09-09T09:57:22;4.37;;;1.00;;
2480;SDS011;57396;48.742;9.128;2022-09-09T09:59:59;2.17;;;0.90;;
2480;SDS011;57396;48.742;9.128;2022-09-09T10:02:36;2.33;;;1.07;;
2480;SDS011;57396;48.742;9.128;2022-09-09T10:05:12;5.40;;;1.30;;
2480;SDS011;57396;48.742;9.128;2022-09-09T10:07:45;2.93;;;1.10;;
2480;SDS011;57396;48.742;9.128;2022-09-09T10:10:22;5.33;;;1.27;;
2480;SDS011;57396;48.742;9.128;2022-09-09T10:12:55;7.07;;;1.10;;
2480;SDS011;57396;48.742;9.128;2022-09-09T10:15:49;4.00;;;1.20;;
2480;SDS011;57396;48.742;9.128;2022-09-09T10:38:15;4.83;;;1.60;;
2480;SDS011;57396;48.742;9.128;2022-09-09T10:40:43;10.10;;;1.90;;
2480;SDS011;57396;48.742;9.128;2022-09-09T10:43:23;3.00;;;1.10;;
2480;SDS011;57396;48.742;9.128;2022-09-09T10:56:56;4.10;;;1.10;;
2480;SDS011;57396;48.742;9.128;2022-09-09T10:59:33;4.93;;;1.07;;
2480;SDS011;57396;48.742;9.128;2022-09-09T11:02:03;3.40;;;1.27;;
2480;SDS011;57396;48.742;9.128;2022-09-09T11:04:40;4.40;;;1.70;;
2480;SDS011;57396;48.742;9.128;2022-09-09T11:07:09;2.10;;;1.23;;
2480;SDS011;57396;48.742;9.128;2022-09-09T11:09:37;3.47;;;1.83;;
2480;SDS011;57396;48.742;9.128;2022-09-09T11:12:06;3.83;;;1.10;;
2480;SDS011;57396;48.742;9.128;2022-09-09T11:14:43;7.20;;;3.67;;
2480;SDS011;57396;48.742;9.128;2022-09-09T11:19:42;4.90;;;2.10;;
2480;SDS011;57396;48.742;9.128;2022-09-09T11:27:47;3.13;;;0.97;;
2480;SDS011;57396;48.742;9.128;2022-09-09T11:30:17;6.30;;;1.00;;
2480;SDS011;57396;48.742;9.128;2022-09-09T11:38:26;1.40;;;0.83;;
2480;SDS011;57396;48.742;9.128;2022-09-09T11:40:56;2.23;;;1.03;;
2480;SDS011;57396;48.742;9.128;2022-09-09T11:43:38;4.30;;;1.00;;
2480;SDS011;57396;48.742;9.128;2022-09-09T11:46:05;1.90;;;0.67;;
2480;SDS011;57396;48.742;9.128;2022-09-09T11:51:11;1.20;;;0.60;;
2480;SDS011;57396;48.742;9.128;2022-09-09T11:53:52;1.77;;;0.70;;
2480;SDS011;57396;48.742;9.128;2022-09-09T11:56:26;1.73;;;0.90;;
2480;SDS011;57396;48.742;9.128;2022-09-09T11:59:06;1.23;;;0.60;;
2480;SDS011;57396;48.742;9.128;2022-09-09T12:01:45;1.20;;;0.60;;
2480;SDS011;57396;48.742;9.128;2022-09-09T12:09:34;2.20;;;0.60;;
2480;SDS011;57396;48.742;9.128;2022-09-09T12:14:38;1.70;;;0.90;;
2480;SDS011;57396;48.742;9.128;2022-09-09T12:17:22;2.27;;;0.60;;
2480;SDS011;57396;48.742;9.128;2022-09-09T12:19:48;1.30;;;0.67;;
2480;SDS011;57396;48.742;9.128;2022-09-09T12:25:18;4.90;;;0.60;;
2480;SDS011;57396;48.742;9.128;2022-09-09T12:27:54;1.93;;;0.60;;
2480;SDS011;57396;48.742;9.128;2022-09-09T12:30:35;1.67;;;0.80;;
2480;SDS011;57396;48.742;9.128;2022-09-09T12:33:22;2.63;;;0.60;;
2480;SDS011;57396;48.742;9.128;2022-09-09T12:35:54;1.00;;;0.50;;
2480;SDS011;57396;48.742;9.128;2022-09-09T12:38:30;1.70;;;0.63;;
2480;SDS011;57396;48.742;9.128;2022-09-09T12:40:58;1.17;;;0.60;;
2480;SDS011;57396;48.742;9.128;2022-09-09T12:43:25;1.77;;;0.70;;
2480;SDS011;57396;48.742;9.128;2022-09-09T12:45:53;1.53;;;0.77;;
2480;SDS011;57396;48.742;9.128;2022-09-09T12:48:25;1.93;;;0.60;;
2480;SDS011;57396;48.742;9.128;2022-09-09T12:50:54;6.23;;;0.90;;
2480;SDS011;57396;48.742;9.128;2022-09-09T12:53:24;2.60;;;0.93;;
2480;SDS011;57396;48.742;9.128;2022-09-09T12:56:52;0.97;;;0.57;;
2480;SDS011;57396;48.742;9.128;2022-09-09T12:58:48;8.83;;;1.00;;
2480;SDS011;57396;48.742;9.128;2022-09-09T13:01:21;4.73;;;0.90;;
2480;SDS011;57396;48.742;9.128;2022-09-09T13:03:54;1.30;;;0.70;;
2480;SDS011;57396;48.742;9.128;2022-09-09T13:06:39;1.53;;;0.60;;
2480;SDS011;57396;48.742;9.128;2022-09-09T13:09:04;1.97;;;0.70;;
2480;SDS011;57396;48.742;9.128;2022-09-09T13:11:39;2.53;;;0.83;;
2480;SDS011;57396;48.742;9.128;2022-09-09T13:14:16;1.23;;;0.67;;
2480;SDS011;57396;48.742;9.128;2022-09-09T13:16:57;2.97;;;0.60;;
2480;SDS011;57396;48.742;9.128;2022-09-09T13:19:23;1.67;;;0.77;;
2480;SDS011;57396;48.742;9.128;2022-09-09T13:21:53;2.60;;;0.90;;
2480;SDS011;57396;48.742;9.128;2022-09-09T13:24:25;2.63;;;0.80;;
2480;SDS011;57396;48.742;9.128;2022-09-09T13:27:01;4.20;;;0.80;;
2480;SDS011;57396;48.742;9.128;2022-09-09T13:29:29;1.40;;;0.60;;
2480;SDS011;57396;48.742;9.128;2022-09-09T13:32:04;1.97;;;0.70;;
2480;SDS011;57396;48.742;9.128;2022-09-09T13:34:32;3.80;;;0.80;;
2480;SDS011;57396;48.742;9.128;2022-09-09T13:37:04;1.47;;;0.97;;
2480;SDS011;57396;48.742;9.128;2022-09-09T13:39:32;1.83;;;0.70;;
2480;SDS011;57396;48.742;9.128;2022-09-09T13:41:59;1.27;;;0.60;;
2480;SDS011;57396;48.742;9.128;2022-09-09T13:44:29;3.60;;;0.60;;
2480;SDS011;57396;48.742;9.128;2022-09-09T13:46:59;2.60;;;0.73;;
2480;SDS011;57396;48.742;9.128;2022-09-09T13:49:26;3.17;;;0.90;;
2480;SDS011;57396;48.742;9.128;2022-09-09T13:52:03;2.60;;;0.70;;
2480;SDS011;57396;48.742;9.128;2022-09-09T13:54:33;3.90;;;0.90;;
2480;SDS011;57396;48.742;9.128;2022-09-09T13:56:58;3.10;;;0.77;;
2480;SDS011;57396;48.742;9.128;2022-09-09T13:59:24;1.80;;;0.67;;
2480;SDS011;57396;48.742;9.128;2022-09-09T14:01:50;2.77;;;0.70;;
2480;SDS011;57396;48.742;9.128;2022-09-09T14:04:17;1.60;;;0.90;;
2480;SDS011;57396;48.742;9.128;2022-09-09T14:06:43;1.60;;;0.80;;
2480;SDS011;57396;48.742;9.128;2022-09-09T14:09:12;2.23;;;1.03;;
2480;SDS011;57396;48.742;9.128;2022-09-09T14:11:38;2.33;;;1.13;;
2480;SDS011;57396;48.742;9.128;2022-09-09T14:14:05;2.30;;;0.93;;
2480;SDS011;57396;48.742;9.128;2022-09-09T14:16:30;4.27;;;0.67;;
2480;SDS011;57396;48.742;9.128;2022-09-09T14:18:56;4.70;;;1.57;;
2480;SDS011;57396;48.742;9.128;2022-09-09T14:21:22;2.93;;;0.93;;
2480;SDS011;57396;48.742;9.128;2022-09-09T14:23:48;1.07;;;0.63;;
2480;SDS011;57396;48.742;9.128;2022-09-09T14:26:14;1.20;;;0.63;;
2480;SDS011;57396;48.742;9.128;2022-09-09T14:28:39;2.50;;;0.80;;
2480;SDS011;57396;48.742;9.128;2022-09-09T14:31:05;1.93;;;0.80;;
2480;SDS011;57396;48.742;9.128;2022-09-09T14:33:31;3.57;;;0.90;;
2480;SDS011;57396;48.742;9.128;2022-09-09T14:36:00;1.53;;;0.73;;
2480;SDS011;57396;48.742;9.128;2022-09-09T14:38:31;4.93;;;0.80;;
2480;SDS011;57396;48.742;9.128;2022-09-09T14:41:02;3.10;;;1.00;;
2480;SDS011;57396;48.742;9.128;2022-09-09T14:43:28;1.90;;;0.87;;
2480;SDS011;57396;48.742;9.128;2022-09-09T14:45:54;2.90;;;0.70;;
2480;SDS011;57396;48.742;9.128;2022-09-09T14:48:20;1.30;;;0.80;;
2480;SDS011;57396;48.742;9.128;2022-09-09T14:50:46;1.60;;;0.87;;
2480;SDS011;57396;48.742;9.128;2022-09-09T14:53:11;3.00;;;0.83;;
2480;SDS011;57396;48.742;9.128;2022-09-09T14:55:37;1.07;;;0.67;;
2480;SDS011;57396;48.742;9.128;2022-09-09T14:58:04;6.50;;;0.70;;
2480;SDS011;57396;48.742;9.128;2022-09-09T15:00:30;2.17;;;0.70;;
2480;SDS011;57396;48.742;9.128;2022-09-09T15:02:56;1.83;;;0.70;;
2480;SDS011;57396;48.742;9.128;2022-09-09T15:05:21;3.57;;;0.77;;
2480;SDS011;57396;48.742;9.128;2022-09-09T15:07:47;2.80;;;0.70;;
2480;SDS011;57396;48.742;9.128;2022-09-09T15:10:16;1.30;;;0.60;;
2480;SDS011;57396;48.742;9.128;2022-09-09T15:12:42;2.93;;;0.87;;
2480;SDS011;57396;48.742;9.128;2022-09-09T15:15:08;1.17;;;0.67;;
2480;SDS011;57396;48.742;9.128;2022-09-09T15:17:34;4.50;;;1.00;;
2480;SDS011;57396;48.742;9.128;2022-09-09T15:20:00;2.30;;;1.10;;
2480;SDS011;57396;48.742;9.128;2022-09-09T15:22:26;1.63;;;0.90;;
2480;SDS011;57396;48.742;9.128;2022-09-09T15:24:51;3.37;;;0.80;;
2480;SDS011;57396;48.742;9.128;2022-09-09T15:27:16;5.20;;;0.90;;
2480;SDS011;57396;48.742;9.128;2022-09-09T15:29:43;2.50;;;1.83;;
2480;SDS011;57396;48.742;9.128;2022-09-09T15:32:09;2.13;;;1.07;;
2480;SDS011;57396;48.742;9.128;2022-09-09T15:34:34;5.93;;;2.30;;
2480;SDS011;57396;48.742;9.128;2022-09-09T15:37:00;2.53;;;0.90;;
2480;SDS011;57396;48.742;9.128;2022-09-09T15:39:25;1.87;;;0.70;;
2480;SDS011;57396;48.742;9.128;2022-09-09T15:41:51;1.50;;;0.60;;
2480;SDS011;57396;48.742;9.128;2022-09-09T15:44:17;4.07;;;0.80;;
2480;SDS011;57396;48.742;9.128;2022-09-09T15:46:50;2.17;;;0.70;;
2480;SDS011;57396;48.742;9.128;2022-09-09T15:49:27;2.13;;;0.70;;
2480;SDS011;57396;48.742;9.128;2022-09-09T15:51:54;2.63;;;0.80;;
2480;SDS011;57396;48.742;9.128;2022-09-09T15:54:25;3.73;;;0.70;;
2480;SDS011;57396;48.742;9.128;2022-09-09T15:56:52;1.30;;;0.90;;
2480;SDS011;57396;48.742;9.128;2022-09-09T15:59:20;1.90;;;0.90;;
2480;SDS011;57396;48.742;9.128;2022-09-09T16:01:49;10.57;;;1.00;;
2480;SDS011;57396;48.742;9.128;2022-09-09T16:04:18;4.60;;;0.90;;
2480;SDS011;57396;48.742;9.128;2022-09-09T16:06:51;2.10;;;1.07;;
2480;SDS011;57396;48.742;9.128;2022-09-09T16:09:18;2.60;;;0.70;;
2480;SDS011;57396;48.742;9.128;2022-09-09T16:11:44;3.47;;;0.90;;
2480;SDS011;57396;48.742;9.128;2022-09-09T16:14:09;1.93;;;0.90;;
2480;SDS011;57396;48.742;9.128;2022-09-09T16:16:36;2.90;;;0.80;;
2480;SDS011;57396;48.742;9.128;2022-09-09T16:19:05;1.37;;;0.70;;
2480;SDS011;57396;48.742;9.128;2022-09-09T16:21:33;3.30;;;0.80;;
2480;SDS011;57396;48.742;9.128;2022-09-09T16:24:05;3.07;;;0.87;;
2480;SDS011;57396;48.742;9.128;2022-09-09T16:26:32;2.20;;;0.80;;
2480;SDS011;57396;48.742;9.128;2022-09-09T16:28:59;3.03;;;1.10;;
2480;SDS011;57396;48.742;9.128;2022-09-09T16:31:25;5.10;;;1.30;;
2480;SDS011;57396;48.742;9.128;2022-09-09T16:33:52;2.57;;;1.00;;
2480;SDS011;57396;48.742;9.128;2022-09-09T16:36:18;2.53;;;0.93;;
2480;SDS011;57396;48.742;9.128;2022-09-09T16:38:45;2.37;;;0.90;;
2480;SDS011;57396;48.742;9.128;2022-09-09T16:41:11;2.80;;;0.93;;
2480;SDS011;57396;48.742;9.128;2022-09-09T16:43:38;1.70;;;0.60;;
2480;SDS011;57396;48.742;9.128;2022-09-09T16:46:10;2.60;;;1.00;;
2480;SDS011;57396;48.742;9.128;2022-09-09T16:48:38;6.53;;;1.00;;
2480;SDS011;57396;48.742;9.128;2022-09-09T16:51:05;1.30;;;0.60;;
2480;SDS011;57396;48.742;9.128;2022-09-09T16:53:32;1.13;;;0.77;;
2480;SDS011;57396;48.742;9.128;2022-09-09T16:55:58;2.07;;;1.00;;
2480;SDS011;57396;48.742;9.128;2022-09-09T16:58:23;1.70;;;0.80;;
2480;SDS011;57396;48.742;9.128;2022-09-09T17:00:49;1.97;;;0.80;;
2480;SDS011;57396;48.742;9.128;2022-09-09T17:03:16;3.07;;;2.47;;
2480;SDS011;57396;48.742;9.128;2022-09-09T17:05:41;2.50;;;1.00;;
2480;SDS011;57396;48.742;9.128;2022-09-09T17:08:07;1.10;;;0.80;;